sensor_id;sensor_type;location;lat;lon;timestamp;temperature;humidity
2435;DHT22;1228;51.022;6.764;2023-03-01T00:01:48;-1.40;99.90
2435;DHT22;1228;51.022;6.764;2023-03-01T00:04:13;-1.40;99.90
2435;DHT22;1228;51.022;6.764;2023-03-01T00:06:39;-1.30;99.90
2435;DHT22;1228;51.022;6.764;2023-03-01T00:09:05;-1.30;99.90
2435;DHT22;1228;51.022;6.764;2023-03-01T00:11:32;-1.30;99.90
2435;DHT22;1228;51.022;6.764;2023-03-01T00:13:59;-1.40;99.90
2435;DHT22;1228;51.022;6.764;2023-03-01T00:16:32;-1.40;99.90
2435;DHT22;1228;51.022;6.764;2023-03-01T00:18:59;-1.40;99.90
2435;DHT22;1228;51.022;6.764;2023-03-01T00:21:25;-1.40;99.90
2435;DHT22;1228;51.022;6.764;2023-03-01T00:23:52;-1.40;99.90
2435;DHT22;1228;51.022;6.764;2023-03-01T00:26:20;-1.40;99.90
2435;DHT22;1228;51.022;6.764;2023-03-01T00:28:46;-1.40;99.90
2435;DHT22;1228;51.022;6.764;2023-03-01T00:31:20;-1.40;99.90
2435;DHT22;1228;51.022;6.764;2023-03-01T00:33:46;-1.40;99.90
2435;DHT22;1228;51.022;6.764;2023-03-01T00:36:14;-1.50;99.90
2435;DHT22;1228;51.022;6.764;2023-03-01T00:38:43;-1.50;99.90
2435;DHT22;1228;51.022;6.764;2023-03-01T00:41:12;-1.50;99.90
2435;DHT22;1228;51.022;6.764;2023-03-01T00:43:38;-1.60;99.90
2435;DHT22;1228;51.022;6.764;2023-03-01T00:46:07;-1.70;99.90
2435;DHT22;1228;51.022;6.764;2023-03-01T00:48:33;-1.70;99.90
2435;DHT22;1228;51.022;6.764;2023-03-01T00:51:10;-1.70;99.90
2435;DHT22;1228;51.022;6.764;2023-03-01T00:53:37;-1.70;99.90
2435;DHT22;1228;51.022;6.764;2023-03-01T00:56:03;-1.70;99.90
2435;DHT22;1228;51.022;6.764;2023-03-01T00:58:30;-1.70;99.90
2435;DHT22;1228;51.022;6.764;2023-03-01T01:00:55;-1.70;99.90
2435;DHT22;1228;51.022;6.764;2023-03-01T01:03:21;-1.70;99.90
2435;DHT22;1228;51.022;6.764;2023-03-01T01:05:47;-1.80;99.90
2435;DHT22;1228;51.022;6.764;2023-03-01T01:08:13;-1.80;99.90
2435;DHT22;1228;51.022;6.764;2023-03-01T01:10:38;-1.80;99.90
2435;DHT22;1228;51.022;6.764;2023-03-01T01:13:04;-1.90;99.90
2435;DHT22;1228;51.022;6.764;2023-03-01T01:15:34;-1.90;99.90
2435;DHT22;1228;51.022;6.764;2023-03-01T01:18:00;-2.00;99.90
2435;DHT22;1228;51.022;6.764;2023-03-01T01:20:26;-2.00;99.90
2435;DHT22;1228;51.022;6.764;2023-03-01T01:22:52;-2.00;99.90
2435;DHT22;1228;51.022;6.764;2023-03-01T01:25:18;-2.10;99.90
2435;DHT22;1228;51.022;6.764;2023-03-01T01:27:43;-2.10;99.90
2435;DHT22;1228;51.022;6.764;2023-03-01T01:30:09;-2.10;99.90
2435;DHT22;1228;51.022;6.764;2023-03-01T01:32:35;-2.10;99.90
2435;DHT22;1228;51.022;6.764;2023-03-01T01:35:01;-2.10;99.90
2435;DHT22;1228;51.022;6.764;2023-03-01T01:37:26;-2.20;99.90
2435;DHT22;1228;51.022;6.764;2023-03-01T01:40:00;-2.20;99.90
2435;DHT22;1228;51.022;6.764;2023-03-01T01:42:26;-2.30;99.90
2435;DHT22;1228;51.022;6.764;2023-03-01T01:47:52;-2.30;99.90
2435;DHT22;1228;51.022;6.764;2023-03-01T01:50:19;-2.40;99.90
2435;DHT22;1228;51.022;6.764;2023-03-01T01:52:48;-2.40;99.90
2435;DHT22;1228;51.022;6.764;2023-03-01T01:55:18;-2.50;99.90
2435;DHT22;1228;51.022;6.764;2023-03-01T01:57:49;-2.40;99.90
2435;DHT22;1228;51.022;6.764;2023-03-01T02:00:25;-2.50;99.90
2435;DHT22;1228;51.022;6.764;2023-03-01T02:03:05;-2.50;99.90
2435;DHT22;1228;51.022;6.764;2023-03-01T02:08:18;-2.60;99.90
2435;DHT22;1228;51.022;6.764;2023-03-01T02:10:45;-2.60;99.90
2435;DHT22;1228;51.022;6.764;2023-03-01T02:13:11;-2.60;99.90
2435;DHT22;1228;51.022;6.764;2023-03-01T02:15:39;-2.60;99.90
2435;DHT22;1228;51.022;6.764;2023-03-01T02:18:06;-2.60;99.90
2435;DHT22;1228;51.022;6.764;2023-03-01T02:23:11;-2.40;99.90
2435;DHT22;1228;51.022;6.764;2023-03-01T02:30:46;-2.40;99.90
2435;DHT22;1228;51.022;6.764;2023-03-01T02:33:32;-2.40;99.90
2435;DHT22;1228;51.022;6.764;2023-03-01T02:36:03;-2.40;99.90
2435;DHT22;1228;51.022;6.764;2023-03-01T02:38:30;-2.40;99.90
2435;DHT22;1228;51.022;6.764;2023-03-01T02:40:57;-2.50;99.90
2435;DHT22;1228;51.022;6.764;2023-03-01T02:43:27;-2.50;99.90
2435;DHT22;1228;51.022;6.764;2023-03-01T02:45:58;-2.50;99.90
2435;DHT22;1228;51.022;6.764;2023-03-01T02:48:23;-2.40;99.90
2435;DHT22;1228;51.022;6.764;2023-03-01T02:56:34;-2.50;99.90
2435;DHT22;1228;51.022;6.764;2023-03-01T02:59:00;-2.50;99.90
2435;DHT22;1228;51.022;6.764;2023-03-01T03:01:26;-2.50;99.90
2435;DHT22;1228;51.022;6.764;2023-03-01T03:04:03;-2.50;99.90
2435;DHT22;1228;51.022;6.764;2023-03-01T03:06:29;-2.50;99.90
2435;DHT22;1228;51.022;6.764;2023-03-01T03:08:55;-2.60;99.90
2435;DHT22;1228;51.022;6.764;2023-03-01T03:11:20;-2.60;99.90
2435;DHT22;1228;51.022;6.764;2023-03-01T03:13:46;-2.60;99.90
2435;DHT22;1228;51.022;6.764;2023-03-01T03:16:13;-2.50;99.90
2435;DHT22;1228;51.022;6.764;2023-03-01T03:18:39;-2.60;99.90
2435;DHT22;1228;51.022;6.764;2023-03-01T03:21:08;-2.50;99.90
2435;DHT22;1228;51.022;6.764;2023-03-01T03:23:36;-2.50;99.90
2435;DHT22;1228;51.022;6.764;2023-03-01T03:26:03;-2.50;99.90
2435;DHT22;1228;51.022;6.764;2023-03-01T03:28:33;-2.60;99.90
2435;DHT22;1228;51.022;6.764;2023-03-01T03:30:59;-2.50;99.90
2435;DHT22;1228;51.022;6.764;2023-03-01T03:33:29;-2.50;99.90
2435;DHT22;1228;51.022;6.764;2023-03-01T03:35:55;-2.40;99.90
2435;DHT22;1228;51.022;6.764;2023-03-01T03:38:21;-2.50;99.90
2435;DHT22;1228;51.022;6.764;2023-03-01T03:40:54;-2.50;99.90
2435;DHT22;1228;51.022;6.764;2023-03-01T03:43:26;-2.40;99.90
2435;DHT22;1228;51.022;6.764;2023-03-01T03:45:52;-2.40;99.90
2435;DHT22;1228;51.022;6.764;2023-03-01T03:48:20;-2.40;99.90
2435;DHT22;1228;51.022;6.764;2023-03-01T03:50:53;-2.50;99.90
2435;DHT22;1228;51.022;6.764;2023-03-01T03:53:20;-2.50;99.90
2435;DHT22;1228;51.022;6.764;2023-03-01T03:55:46;-2.50;99.90
2435;DHT22;1228;51.022;6.764;2023-03-01T03:58:15;-2.50;99.90
2435;DHT22;1228;51.022;6.764;2023-03-01T04:00:44;-2.60;99.90
2435;DHT22;1228;51.022;6.764;2023-03-01T04:03:11;-2.60;99.90
2435;DHT22;1228;51.022;6.764;2023-03-01T04:05:38;-2.60;99.90
2435;DHT22;1228;51.022;6.764;2023-03-01T04:08:04;-2.70;99.90
2435;DHT22;1228;51.022;6.764;2023-03-01T04:10:38;-2.70;99.90
2435;DHT22;1228;51.022;6.764;2023-03-01T04:13:05;-2.70;99.90
2435;DHT22;1228;51.022;6.764;2023-03-01T04:15:31;-2.60;99.90
2435;DHT22;1228;51.022;6.764;2023-03-01T04:17:58;-2.60;99.90
2435;DHT22;1228;51.022;6.764;2023-03-01T04:20:26;-2.60;99.90
2435;DHT22;1228;51.022;6.764;2023-03-01T04:23:20;-2.60;99.90
2435;DHT22;1228;51.022;6.764;2023-03-01T04:25:54;-2.60;99.90
2435;DHT22;1228;51.022;6.764;2023-03-01T04:28:28;-2.60;99.90
2435;DHT22;1228;51.022;6.764;2023-03-01T04:30:56;-2.60;99.90
2435;DHT22;1228;51.022;6.764;2023-03-01T04:33:23;-2.60;99.90
2435;DHT22;1228;51.022;6.764;2023-03-01T04:35:50;-2.70;99.90
2435;DHT22;1228;51.022;6.764;2023-03-01T04:38:17;-2.70;99.90
2435;DHT22;1228;51.022;6.764;2023-03-01T04:40:42;-2.80;99.90
2435;DHT22;1228;51.022;6.764;2023-03-01T04:43:10;-2.80;99.90
2435;DHT22;1228;51.022;6.764;2023-03-01T04:45:36;-2.80;99.90
2435;DHT22;1228;51.022;6.764;2023-03-01T04:48:02;-2.80;99.90
2435;DHT22;1228;51.022;6.764;2023-03-01T04:50:29;-2.90;99.90
2435;DHT22;1228;51.022;6.764;2023-03-01T04:52:54;-2.90;99.90
2435;DHT22;1228;51.022;6.764;2023-03-01T04:55:27;-2.80;99.90
2435;DHT22;1228;51.022;6.764;2023-03-01T04:57:53;-2.90;99.90
2435;DHT22;1228;51.022;6.764;2023-03-01T05:00:19;-2.90;99.90
2435;DHT22;1228;51.022;6.764;2023-03-01T05:02:49;-2.80;99.90
2435;DHT22;1228;51.022;6.764;2023-03-01T05:05:19;-2.80;99.90
2435;DHT22;1228;51.022;6.764;2023-03-01T05:07:45;-2.80;99.90
2435;DHT22;1228;51.022;6.764;2023-03-01T05:10:11;-2.80;99.90
2435;DHT22;1228;51.022;6.764;2023-03-01T05:12:36;-2.80;99.90
2435;DHT22;1228;51.022;6.764;2023-03-01T05:15:03;-2.80;99.90
2435;DHT22;1228;51.022;6.764;2023-03-01T05:17:33;-2.90;99.90
2435;DHT22;1228;51.022;6.764;2023-03-01T05:19:59;-2.90;99.90
2435;DHT22;1228;51.022;6.764;2023-03-01T05:22:25;-2.90;99.90
2435;DHT22;1228;51.022;6.764;2023-03-01T05:24:50;-2.90;99.90
2435;DHT22;1228;51.022;6.764;2023-03-01T05:27:16;-3.00;99.90
2435;DHT22;1228;51.022;6.764;2023-03-01T05:29:42;-3.00;99.90
2435;DHT22;1228;51.022;6.764;2023-03-01T05:32:07;-3.00;99.90
2435;DHT22;1228;51.022;6.764;2023-03-01T05:34:35;-3.00;99.90
2435;DHT22;1228;51.022;6.764;2023-03-01T05:37:02;-3.00;99.90
2435;DHT22;1228;51.022;6.764;2023-03-01T05:39:29;-3.00;99.90
2435;DHT22;1228;51.022;6.764;2023-03-01T05:41:57;-3.10;99.90
2435;DHT22;1228;51.022;6.764;2023-03-01T05:44:23;-3.20;99.90
2435;DHT22;1228;51.022;6.764;2023-03-01T05:46:49;-3.20;99.90
2435;DHT22;1228;51.022;6.764;2023-03-01T05:49:15;-3.30;99.90
2435;DHT22;1228;51.022;6.764;2023-03-01T05:51:42;-3.30;99.90
2435;DHT22;1228;51.022;6.764;2023-03-01T05:54:09;-3.20;99.90
2435;DHT22;1228;51.022;6.764;2023-03-01T05:56:36;-3.20;99.90
2435;DHT22;1228;51.022;6.764;2023-03-01T05:59:03;-3.20;99.90
2435;DHT22;1228;51.022;6.764;2023-03-01T06:01:30;-3.20;99.90
2435;DHT22;1228;51.022;6.764;2023-03-01T06:03:56;-3.20;99.90
2435;DHT22;1228;51.022;6.764;2023-03-01T06:06:22;-3.30;99.90
2435;DHT22;1228;51.022;6.764;2023-03-01T06:08:49;-3.30;99.90
2435;DHT22;1228;51.022;6.764;2023-03-01T06:11:15;-3.30;99.90
2435;DHT22;1228;51.022;6.764;2023-03-01T06:13:44;-3.40;99.90
2435;DHT22;1228;51.022;6.764;2023-03-01T06:16:10;-3.40;99.90
2435;DHT22;1228;51.022;6.764;2023-03-01T06:18:37;-3.40;99.90
2435;DHT22;1228;51.022;6.764;2023-03-01T06:21:03;-3.40;99.90
2435;DHT22;1228;51.022;6.764;2023-03-01T06:23:29;-3.30;99.90
2435;DHT22;1228;51.022;6.764;2023-03-01T06:25:55;-3.30;99.90
2435;DHT22;1228;51.022;6.764;2023-03-01T06:28:21;-3.30;99.90
2435;DHT22;1228;51.022;6.764;2023-03-01T06:30:47;-3.40;99.90
2435;DHT22;1228;51.022;6.764;2023-03-01T06:33:12;-3.40;99.90
2435;DHT22;1228;51.022;6.764;2023-03-01T06:35:38;-3.40;99.90
2435;DHT22;1228;51.022;6.764;2023-03-01T06:38:04;-3.40;99.90
2435;DHT22;1228;51.022;6.764;2023-03-01T06:40:31;-3.30;99.90
2435;DHT22;1228;51.022;6.764;2023-03-01T06:42:57;-3.30;99.90
2435;DHT22;1228;51.022;6.764;2023-03-01T06:45:23;-3.30;99.90
2435;DHT22;1228;51.022;6.764;2023-03-01T06:47:49;-3.20;99.90
2435;DHT22;1228;51.022;6.764;2023-03-01T06:50:16;-3.20;99.90
2435;DHT22;1228;51.022;6.764;2023-03-01T06:52:42;-3.20;99.90
2435;DHT22;1228;51.022;6.764;2023-03-01T06:55:10;-3.10;99.90
2435;DHT22;1228;51.022;6.764;2023-03-01T06:57:36;-3.00;99.90
2435;DHT22;1228;51.022;6.764;2023-03-01T07:00:04;-3.00;99.90
2435;DHT22;1228;51.022;6.764;2023-03-01T07:02:29;-2.90;99.90
2435;DHT22;1228;51.022;6.764;2023-03-01T07:04:55;-2.80;99.90
2435;DHT22;1228;51.022;6.764;2023-03-01T07:07:21;-2.60;99.90
2435;DHT22;1228;51.022;6.764;2023-03-01T07:09:48;-2.50;99.90
2435;DHT22;1228;51.022;6.764;2023-03-01T07:12:14;-2.40;99.90
2435;DHT22;1228;51.022;6.764;2023-03-01T07:14:39;-2.30;99.90
2435;DHT22;1228;51.022;6.764;2023-03-01T07:17:05;-2.10;99.90
2435;DHT22;1228;51.022;6.764;2023-03-01T07:19:30;-2.00;99.90
2435;DHT22;1228;51.022;6.764;2023-03-01T07:21:56;-1.90;99.90
2435;DHT22;1228;51.022;6.764;2023-03-01T07:24:22;-1.80;99.90
2435;DHT22;1228;51.022;6.764;2023-03-01T07:26:49;-1.40;99.90
2435;DHT22;1228;51.022;6.764;2023-03-01T07:29:15;-0.90;99.90
2435;DHT22;1228;51.022;6.764;2023-03-01T07:31:41;-0.20;99.90
2435;DHT22;1228;51.022;6.764;2023-03-01T07:34:07;0.60;99.90
2435;DHT22;1228;51.022;6.764;2023-03-01T07:36:32;1.30;99.90
2435;DHT22;1228;51.022;6.764;2023-03-01T07:38:58;2.10;99.90
2435;DHT22;1228;51.022;6.764;2023-03-01T07:41:23;2.80;99.90
2435;DHT22;1228;51.022;6.764;2023-03-01T07:43:49;3.30;99.90
2435;DHT22;1228;51.022;6.764;2023-03-01T07:46:15;3.60;99.90
2435;DHT22;1228;51.022;6.764;2023-03-01T07:48:40;3.90;99.90
2435;DHT22;1228;51.022;6.764;2023-03-01T07:51:06;4.10;99.90
2435;DHT22;1228;51.022;6.764;2023-03-01T07:53:33;4.20;99.90
2435;DHT22;1228;51.022;6.764;2023-03-01T07:56:12;4.40;99.90
2435;DHT22;1228;51.022;6.764;2023-03-01T07:58:40;4.60;99.90
2435;DHT22;1228;51.022;6.764;2023-03-01T08:03:35;4.80;99.90
2435;DHT22;1228;51.022;6.764;2023-03-01T08:06:02;5.00;99.90
2435;DHT22;1228;51.022;6.764;2023-03-01T08:08:28;5.20;99.90
2435;DHT22;1228;51.022;6.764;2023-03-01T08:10:56;5.60;99.90
2435;DHT22;1228;51.022;6.764;2023-03-01T08:13:22;5.90;99.90
2435;DHT22;1228;51.022;6.764;2023-03-01T08:15:49;5.90;99.90
2435;DHT22;1228;51.022;6.764;2023-03-01T08:18:15;5.80;99.90
2435;DHT22;1228;51.022;6.764;2023-03-01T08:20:41;5.90;99.90
2435;DHT22;1228;51.022;6.764;2023-03-01T08:23:07;6.30;99.90
2435;DHT22;1228;51.022;6.764;2023-03-01T08:25:33;6.50;99.90
2435;DHT22;1228;51.022;6.764;2023-03-01T08:27:58;6.80;99.90
2435;DHT22;1228;51.022;6.764;2023-03-01T08:30:24;7.00;99.90
2435;DHT22;1228;51.022;6.764;2023-03-01T08:32:50;7.40;99.90
2435;DHT22;1228;51.022;6.764;2023-03-01T08:35:16;7.60;99.90
2435;DHT22;1228;51.022;6.764;2023-03-01T08:37:42;7.60;97.80
2435;DHT22;1228;51.022;6.764;2023-03-01T08:40:08;7.50;94.10
2435;DHT22;1228;51.022;6.764;2023-03-01T08:42:36;7.50;94.40
2435;DHT22;1228;51.022;6.764;2023-03-01T08:45:02;7.50;94.40
2435;DHT22;1228;51.022;6.764;2023-03-01T08:47:28;7.60;93.10
2435;DHT22;1228;51.022;6.764;2023-03-01T08:49:54;7.60;93.00
2435;DHT22;1228;51.022;6.764;2023-03-01T08:52:20;7.60;92.00
2435;DHT22;1228;51.022;6.764;2023-03-01T08:54:48;7.70;93.30
2435;DHT22;1228;51.022;6.764;2023-03-01T08:57:14;7.90;91.10
2435;DHT22;1228;51.022;6.764;2023-03-01T08:59:39;8.00;89.00
2435;DHT22;1228;51.022;6.764;2023-03-01T09:02:13;7.90;90.60
2435;DHT22;1228;51.022;6.764;2023-03-01T09:04:39;7.60;87.00
2435;DHT22;1228;51.022;6.764;2023-03-01T09:07:05;7.20;86.90
2435;DHT22;1228;51.022;6.764;2023-03-01T09:09:31;6.90;88.80
2435;DHT22;1228;51.022;6.764;2023-03-01T09:11:57;6.60;90.60
2435;DHT22;1228;51.022;6.764;2023-03-01T09:14:22;6.70;91.50
2435;DHT22;1228;51.022;6.764;2023-03-01T09:16:48;6.80;92.00
2435;DHT22;1228;51.022;6.764;2023-03-01T09:19:14;7.00;91.40
2435;DHT22;1228;51.022;6.764;2023-03-01T09:21:40;7.00;90.30
2435;DHT22;1228;51.022;6.764;2023-03-01T09:24:15;7.20;90.70
2435;DHT22;1228;51.022;6.764;2023-03-01T09:26:41;7.40;91.30
2435;DHT22;1228;51.022;6.764;2023-03-01T09:29:06;7.80;88.70
2435;DHT22;1228;51.022;6.764;2023-03-01T09:31:32;7.90;88.60
2435;DHT22;1228;51.022;6.764;2023-03-01T09:33:57;7.90;86.80
2435;DHT22;1228;51.022;6.764;2023-03-01T09:36:24;7.80;86.20
2435;DHT22;1228;51.022;6.764;2023-03-01T09:38:51;8.00;86.80
2435;DHT22;1228;51.022;6.764;2023-03-01T09:41:38;8.10;84.80
2435;DHT22;1228;51.022;6.764;2023-03-01T09:44:53;8.40;87.10
2435;DHT22;1228;51.022;6.764;2023-03-01T09:47:23;8.60;82.20
2435;DHT22;1228;51.022;6.764;2023-03-01T09:50:12;8.50;79.20
2435;DHT22;1228;51.022;6.764;2023-03-01T09:52:45;8.50;81.60
2435;DHT22;1228;51.022;6.764;2023-03-01T09:55:23;8.80;78.10
2435;DHT22;1228;51.022;6.764;2023-03-01T09:57:56;8.90;76.20
2435;DHT22;1228;51.022;6.764;2023-03-01T10:10:55;8.90;72.30
2435;DHT22;1228;51.022;6.764;2023-03-01T10:16:21;9.20;72.10
2435;DHT22;1228;51.022;6.764;2023-03-01T10:18:51;9.40;72.70
2435;DHT22;1228;51.022;6.764;2023-03-01T10:21:20;9.50;68.40
2435;DHT22;1228;51.022;6.764;2023-03-01T10:23:50;9.50;71.00
2435;DHT22;1228;51.022;6.764;2023-03-01T10:26:23;9.40;69.10
2435;DHT22;1228;51.022;6.764;2023-03-01T10:29:09;9.60;67.70
2435;DHT22;1228;51.022;6.764;2023-03-01T10:31:49;9.50;67.40
2435;DHT22;1228;51.022;6.764;2023-03-01T10:34:17;9.60;68.30
2435;DHT22;1228;51.022;6.764;2023-03-01T10:36:46;9.60;67.00
2435;DHT22;1228;51.022;6.764;2023-03-01T10:39:15;9.30;66.40
2435;DHT22;1228;51.022;6.764;2023-03-01T10:41:59;9.10;66.90
2435;DHT22;1228;51.022;6.764;2023-03-01T10:47:03;9.60;66.30
2435;DHT22;1228;51.022;6.764;2023-03-01T10:49:29;9.60;63.40
2435;DHT22;1228;51.022;6.764;2023-03-01T10:51:55;9.80;63.90
2435;DHT22;1228;51.022;6.764;2023-03-01T10:54:30;9.90;64.40
2435;DHT22;1228;51.022;6.764;2023-03-01T10:56:59;10.10;61.20
2435;DHT22;1228;51.022;6.764;2023-03-01T10:59:36;10.10;62.30
2435;DHT22;1228;51.022;6.764;2023-03-01T11:05:00;10.20;61.40
2435;DHT22;1228;51.022;6.764;2023-03-01T11:07:26;10.40;58.10
2435;DHT22;1228;51.022;6.764;2023-03-01T11:09:52;10.50;61.50
2435;DHT22;1228;51.022;6.764;2023-03-01T11:12:17;10.80;62.40
2435;DHT22;1228;51.022;6.764;2023-03-01T11:15:02;10.90;56.50
2435;DHT22;1228;51.022;6.764;2023-03-01T11:17:30;10.90;57.70
2435;DHT22;1228;51.022;6.764;2023-03-01T11:22:52;11.00;56.60
2435;DHT22;1228;51.022;6.764;2023-03-01T11:25:43;10.40;57.90
2435;DHT22;1228;51.022;6.764;2023-03-01T11:28:13;10.20;55.90
2435;DHT22;1228;51.022;6.764;2023-03-01T11:33:28;11.00;59.50
2435;DHT22;1228;51.022;6.764;2023-03-01T11:39:38;11.50;57.50
2435;DHT22;1228;51.022;6.764;2023-03-01T11:42:18;11.80;56.10
2435;DHT22;1228;51.022;6.764;2023-03-01T11:44:48;11.90;53.00
2435;DHT22;1228;51.022;6.764;2023-03-01T12:20:35;12.20;49.30
2435;DHT22;1228;51.022;6.764;2023-03-01T12:28:43;12.40;50.50
2435;DHT22;1228;51.022;6.764;2023-03-01T12:50:41;12.70;46.90
2435;DHT22;1228;51.022;6.764;2023-03-01T12:53:27;12.90;47.50
2435;DHT22;1228;51.022;6.764;2023-03-01T12:55:58;12.70;46.60
2435;DHT22;1228;51.022;6.764;2023-03-01T13:01:16;12.30;49.30
2435;DHT22;1228;51.022;6.764;2023-03-01T13:17:49;12.10;50.50
2435;DHT22;1228;51.022;6.764;2023-03-01T13:20:24;12.10;51.00
2435;DHT22;1228;51.022;6.764;2023-03-01T13:23:03;12.10;49.50
2435;DHT22;1228;51.022;6.764;2023-03-01T13:25:28;11.70;50.10
2435;DHT22;1228;51.022;6.764;2023-03-01T13:30:59;11.70;50.30
2435;DHT22;1228;51.022;6.764;2023-03-01T13:35:54;12.10;51.10
2435;DHT22;1228;51.022;6.764;2023-03-01T13:38:44;12.10;51.00
2435;DHT22;1228;51.022;6.764;2023-03-01T13:41:12;12.20;50.80
2435;DHT22;1228;51.022;6.764;2023-03-01T13:43:41;12.30;53.20
2435;DHT22;1228;51.022;6.764;2023-03-01T13:46:15;12.10;50.80
2435;DHT22;1228;51.022;6.764;2023-03-01T13:48:45;11.80;51.50
2435;DHT22;1228;51.022;6.764;2023-03-01T13:51:11;11.80;51.70
2435;DHT22;1228;51.022;6.764;2023-03-01T13:53:44;11.80;51.60
2435;DHT22;1228;51.022;6.764;2023-03-01T13:56:16;11.60;52.30
2435;DHT22;1228;51.022;6.764;2023-03-01T13:58:54;11.60;52.70
2435;DHT22;1228;51.022;6.764;2023-03-01T14:03:52;11.50;50.10
2435;DHT22;1228;51.022;6.764;2023-03-01T14:06:26;11.40;51.50
2435;DHT22;1228;51.022;6.764;2023-03-01T14:09:02;11.10;49.60
2435;DHT22;1228;51.022;6.764;2023-03-01T14:14:10;10.80;51.70
2435;DHT22;1228;51.022;6.764;2023-03-01T14:16:55;11.00;53.80
2435;DHT22;1228;51.022;6.764;2023-03-01T14:19:26;11.30;53.90
2435;DHT22;1228;51.022;6.764;2023-03-01T14:22:33;11.50;52.90
2435;DHT22;1228;51.022;6.764;2023-03-01T14:24:58;11.60;52.20
2435;DHT22;1228;51.022;6.764;2023-03-01T14:27:32;11.70;52.50
2435;DHT22;1228;51.022;6.764;2023-03-01T14:30:11;11.40;52.70
2435;DHT22;1228;51.022;6.764;2023-03-01T14:32:38;11.00;52.00
2435;DHT22;1228;51.022;6.764;2023-03-01T14:35:20;10.70;53.70
2435;DHT22;1228;51.022;6.764;2023-03-01T14:37:46;10.80;55.80
2435;DHT22;1228;51.022;6.764;2023-03-01T14:40:28;10.90;55.10
2435;DHT22;1228;51.022;6.764;2023-03-01T14:42:57;10.80;55.20
2435;DHT22;1228;51.022;6.764;2023-03-01T14:45:26;10.90;55.30
2435;DHT22;1228;51.022;6.764;2023-03-01T14:47:53;11.10;54.70
2435;DHT22;1228;51.022;6.764;2023-03-01T14:50:32;11.10;54.90
2435;DHT22;1228;51.022;6.764;2023-03-01T14:53:16;10.90;55.80
2435;DHT22;1228;51.022;6.764;2023-03-01T14:55:46;10.90;55.90
2435;DHT22;1228;51.022;6.764;2023-03-01T14:58:15;11.00;55.50
2435;DHT22;1228;51.022;6.764;2023-03-01T15:00:55;11.00;54.50
2435;DHT22;1228;51.022;6.764;2023-03-01T15:03:28;10.70;56.70
2435;DHT22;1228;51.022;6.764;2023-03-01T15:05:55;10.90;57.60
2435;DHT22;1228;51.022;6.764;2023-03-01T15:08:24;10.90;55.70
2435;DHT22;1228;51.022;6.764;2023-03-01T15:13:25;10.60;56.80
2435;DHT22;1228;51.022;6.764;2023-03-01T15:15:59;10.40;55.70
2435;DHT22;1228;51.022;6.764;2023-03-01T15:18:28;10.20;56.20
2435;DHT22;1228;51.022;6.764;2023-03-01T15:20:55;10.10;55.90
2435;DHT22;1228;51.022;6.764;2023-03-01T15:23:26;9.90;56.60
2435;DHT22;1228;51.022;6.764;2023-03-01T15:25:53;9.80;57.60
2435;DHT22;1228;51.022;6.764;2023-03-01T15:28:34;9.80;57.40
2435;DHT22;1228;51.022;6.764;2023-03-01T15:31:14;9.70;56.80
2435;DHT22;1228;51.022;6.764;2023-03-01T15:33:41;9.70;56.30
2435;DHT22;1228;51.022;6.764;2023-03-01T15:39:41;9.40;59.30
2435;DHT22;1228;51.022;6.764;2023-03-01T15:48:01;9.40;56.80
2435;DHT22;1228;51.022;6.764;2023-03-01T15:50:35;9.40;55.90
2435;DHT22;1228;51.022;6.764;2023-03-01T15:53:05;9.40;57.20
2435;DHT22;1228;51.022;6.764;2023-03-01T15:55:34;9.30;56.60
2435;DHT22;1228;51.022;6.764;2023-03-01T15:58:06;9.20;56.00
2435;DHT22;1228;51.022;6.764;2023-03-01T16:00:34;8.90;56.30
2435;DHT22;1228;51.022;6.764;2023-03-01T16:03:00;8.60;56.60
2435;DHT22;1228;51.022;6.764;2023-03-01T16:05:31;8.20;56.70
2435;DHT22;1228;51.022;6.764;2023-03-01T16:07:57;7.90;58.00
2435;DHT22;1228;51.022;6.764;2023-03-01T16:10:23;7.70;57.90
2435;DHT22;1228;51.022;6.764;2023-03-01T16:12:50;7.60;59.40
2435;DHT22;1228;51.022;6.764;2023-03-01T16:15:22;7.70;60.10
2435;DHT22;1228;51.022;6.764;2023-03-01T16:17:49;7.80;60.40
2435;DHT22;1228;51.022;6.764;2023-03-01T16:20:15;8.00;59.50
2435;DHT22;1228;51.022;6.764;2023-03-01T16:22:42;8.10;58.70
2435;DHT22;1228;51.022;6.764;2023-03-01T16:25:09;8.00;57.10
2435;DHT22;1228;51.022;6.764;2023-03-01T16:27:35;8.00;58.60
2435;DHT22;1228;51.022;6.764;2023-03-01T16:30:00;8.10;57.50
2435;DHT22;1228;51.022;6.764;2023-03-01T16:32:26;8.00;59.30
2435;DHT22;1228;51.022;6.764;2023-03-01T16:34:52;7.80;59.60
2435;DHT22;1228;51.022;6.764;2023-03-01T16:37:17;7.50;59.60
2435;DHT22;1228;51.022;6.764;2023-03-01T16:39:44;7.30;61.00
2435;DHT22;1228;51.022;6.764;2023-03-01T16:42:10;7.10;62.20
2435;DHT22;1228;51.022;6.764;2023-03-01T16:44:35;6.90;63.00
2435;DHT22;1228;51.022;6.764;2023-03-01T16:47:01;6.70;65.50
2435;DHT22;1228;51.022;6.764;2023-03-01T16:49:26;6.50;67.90
2435;DHT22;1228;51.022;6.764;2023-03-01T16:51:53;6.40;68.70
2435;DHT22;1228;51.022;6.764;2023-03-01T16:54:19;6.30;69.80
2435;DHT22;1228;51.022;6.764;2023-03-01T16:56:44;6.10;70.40
2435;DHT22;1228;51.022;6.764;2023-03-01T16:59:10;6.00;69.30
2435;DHT22;1228;51.022;6.764;2023-03-01T17:01:36;5.90;70.20
2435;DHT22;1228;51.022;6.764;2023-03-01T17:04:06;5.80;69.40
2435;DHT22;1228;51.022;6.764;2023-03-01T17:06:32;5.80;70.40
2435;DHT22;1228;51.022;6.764;2023-03-01T17:08:58;5.70;70.40
2435;DHT22;1228;51.022;6.764;2023-03-01T17:11:24;5.70;70.90
2435;DHT22;1228;51.022;6.764;2023-03-01T17:13:50;5.60;72.80
2435;DHT22;1228;51.022;6.764;2023-03-01T17:16:18;5.50;75.40
2435;DHT22;1228;51.022;6.764;2023-03-01T17:18:44;5.40;75.40
2435;DHT22;1228;51.022;6.764;2023-03-01T17:21:11;5.30;75.50
2435;DHT22;1228;51.022;6.764;2023-03-01T17:23:39;5.20;76.90
2435;DHT22;1228;51.022;6.764;2023-03-01T17:26:05;5.10;79.10
2435;DHT22;1228;51.022;6.764;2023-03-01T17:28:32;5.00;80.80
2435;DHT22;1228;51.022;6.764;2023-03-01T17:31:00;5.00;81.40
2435;DHT22;1228;51.022;6.764;2023-03-01T17:33:26;4.80;84.00
2435;DHT22;1228;51.022;6.764;2023-03-01T17:35:51;4.70;82.40
2435;DHT22;1228;51.022;6.764;2023-03-01T17:38:17;4.60;82.30
2435;DHT22;1228;51.022;6.764;2023-03-01T17:40:44;4.60;83.50
2435;DHT22;1228;51.022;6.764;2023-03-01T17:43:14;4.50;83.20
2435;DHT22;1228;51.022;6.764;2023-03-01T17:45:40;4.50;85.40
2435;DHT22;1228;51.022;6.764;2023-03-01T17:48:09;4.50;84.20
2435;DHT22;1228;51.022;6.764;2023-03-01T17:50:37;4.50;83.80
2435;DHT22;1228;51.022;6.764;2023-03-01T17:53:03;4.50;84.20
2435;DHT22;1228;51.022;6.764;2023-03-01T17:55:34;4.40;83.90
2435;DHT22;1228;51.022;6.764;2023-03-01T17:58:00;4.40;84.00
2435;DHT22;1228;51.022;6.764;2023-03-01T18:00:26;4.40;83.50
2435;DHT22;1228;51.022;6.764;2023-03-01T18:02:52;4.40;83.50
2435;DHT22;1228;51.022;6.764;2023-03-01T18:05:18;4.40;84.30
2435;DHT22;1228;51.022;6.764;2023-03-01T18:07:44;4.30;84.70
2435;DHT22;1228;51.022;6.764;2023-03-01T18:10:10;4.30;84.90
2435;DHT22;1228;51.022;6.764;2023-03-01T18:12:35;4.30;85.90
2435;DHT22;1228;51.022;6.764;2023-03-01T18:15:03;4.30;86.00
2435;DHT22;1228;51.022;6.764;2023-03-01T18:17:29;4.20;86.40
2435;DHT22;1228;51.022;6.764;2023-03-01T18:19:54;4.20;86.40
2435;DHT22;1228;51.022;6.764;2023-03-01T18:22:21;4.30;85.30
2435;DHT22;1228;51.022;6.764;2023-03-01T18:24:47;4.30;84.70
2435;DHT22;1228;51.022;6.764;2023-03-01T18:27:12;4.30;85.90
2435;DHT22;1228;51.022;6.764;2023-03-01T18:29:38;4.30;86.40
2435;DHT22;1228;51.022;6.764;2023-03-01T18:32:05;4.20;87.30
2435;DHT22;1228;51.022;6.764;2023-03-01T18:34:30;4.20;87.00
2435;DHT22;1228;51.022;6.764;2023-03-01T18:36:56;4.20;85.90
2435;DHT22;1228;51.022;6.764;2023-03-01T18:39:23;4.30;85.10
2435;DHT22;1228;51.022;6.764;2023-03-01T18:41:49;4.40;85.80
2435;DHT22;1228;51.022;6.764;2023-03-01T18:44:15;4.40;85.60